Weather at Al Quwayrah Highway Strip

Public forecast

Using degrees Celsius for public forecast. Weather courtesy of forecast.io.

Closest aviation weather report (METAR) to Al Quwayrah Highway Strip

Report is more than 2 hours old.

Closest report is Aqaba King Hussein International Airport, 20.6 nm (38.1 km) SW. Retrieved 2020/09/24 23:00 UTC (4 hours ago):

OJAQ 242300Z 33012KT CAVOK 27/20 Q1009 NOSIG

Closest aviation forecast (TAF) to Al Quwayrah Highway Strip

Closest forecast is Ramon Airport, 17.6 nm (32.5 km) WSW. Retrieved 2020-09-25 00:00 UTC (3 hours ago):

TAF LLER 242302Z 2500/2524 01010KT CAVOK BECMG 2506/2508 01018KT PROB40 2508/2515 01020G30KT BECMG 2519/2522 34012KT TX35/2512Z TN25/2503Z